Campbell, Ohio
Current Conditions -  °F | °C
As of 2:51 AM on Sunday 21 Dec 2014 (Local Time) from KYNG Reporting Station
Overcast Overcast  
Wind Chill: 28°   Ceiling: 2500
Heat Index: 28°   Visibility: 10mi
Dew Point: 23°   Wind: 0mph
Humidity: 81%   Direction: NA
Pressure: 30.27"   Gusts: NA
Location:  41.07°N, 80.6°W
Report Text: KYNG 210751Z 00000KT 10SM OVC025 M02/M05 A3027 RMK AO2 SLP263 T10221050
Loading
Personal Weather Stations






























Interactive Weather Map New forecast layout! Learn more

10-Day Weather Forecast

Advertisements
Track Severe Weather on mobile